createdAt,value
2022-12-16T00:04:11.640Z,17.05
2022-12-16T00:09:09.421Z,22.90
2022-12-16T00:14:09.291Z,19.52
2022-12-16T00:19:06.152Z,21.38
2022-12-16T00:24:03.796Z,15.07
2022-12-16T00:29:01.255Z,16.10
2022-12-16T00:33:59.037Z,16.98
2022-12-16T00:38:55.826Z,18.65
2022-12-16T00:43:52.661Z,15.63
2022-12-16T00:48:50.996Z,13.55
2022-12-16T00:53:49.711Z,10.55
2022-12-16T00:58:47.761Z,11.35
2022-12-16T01:03:44.788Z,11.40
2022-12-16T01:08:47.601Z,15.52
2022-12-16T01:13:45.359Z,14.82
2022-12-16T01:18:42.259Z,12.00
2022-12-16T01:23:39.078Z,17.98
2022-12-16T01:28:36.560Z,14.32
2022-12-16T01:33:33.817Z,14.70
2022-12-16T01:38:31.619Z,15.05
2022-12-16T01:43:31.784Z,15.45
2022-12-16T01:48:38.862Z,18.50
2022-12-16T01:53:38.046Z,18.50
2022-12-16T01:58:38.921Z,12.82
2022-12-16T02:03:37.707Z,17.30
2022-12-16T02:08:35.433Z,15.55
2022-12-16T02:13:42.793Z,17.38
2022-12-16T02:18:53.327Z,16.45
2022-12-16T02:24:30.395Z,13.85
2022-12-16T02:29:57.364Z,15.32
2022-12-16T02:35:04.957Z,17.58
2022-12-16T02:40:06.214Z,19.20
2022-12-16T02:45:11.139Z,21.63
2022-12-16T02:50:17.947Z,20.20
2022-12-16T02:55:15.587Z,16.70
2022-12-16T03:00:18.454Z,17.58
2022-12-16T03:05:21.996Z,19.63
2022-12-16T03:10:24.767Z,20.58
2022-12-16T03:15:26.251Z,13.55
2022-12-16T03:20:28.693Z,17.35
2022-12-16T03:25:28.122Z,20.50
2022-12-16T03:30:29.271Z,24.30
2022-12-16T03:35:32.652Z,25.92
2022-12-16T03:40:32.410Z,20.75
2022-12-16T03:45:39.987Z,26.48
2022-12-16T03:50:38.323Z,28.13
2022-12-16T03:55:35.355Z,22.90
2022-12-16T04:00:32.702Z,22.50
2022-12-16T04:05:29.738Z,21.10
2022-12-16T04:10:41.906Z,20.52
2022-12-16T04:15:57.178Z,20.25
2022-12-16T04:21:14.276Z,23.13
2022-12-16T04:26:12.512Z,17.90
2022-12-16T04:31:09.485Z,22.60
2022-12-16T04:36:25.123Z,20.80
2022-12-16T04:41:40.676Z,26.10
2022-12-16T04:46:55.848Z,21.35
2022-12-16T04:52:11.383Z,21.52
2022-12-16T04:57:27.062Z,22.52
2022-12-16T05:02:42.056Z,20.45
2022-12-16T05:07:56.026Z,21.15
2022-12-16T05:13:12.360Z,20.23
2022-12-16T05:18:28.105Z,19.48
2022-12-16T05:23:42.880Z,25.83
2022-12-16T05:28:58.584Z,20.08
2022-12-16T05:34:14.332Z,21.90
2022-12-16T05:39:29.342Z,27.20
2022-12-16T05:44:45.319Z,22.65
2022-12-16T05:50:00.158Z,37.17
2022-12-16T05:55:17.633Z,27.48
2022-12-16T06:00:36.691Z,22.80
2022-12-16T06:05:51.514Z,18.58
2022-12-16T06:11:02.911Z,21.25
2022-12-16T06:16:21.061Z,14.95
2022-12-16T06:21:36.069Z,14.50
2022-12-16T06:26:59.495Z,17.92
2022-12-16T06:32:14.928Z,23.90
2022-12-16T06:37:29.831Z,18.07
2022-12-16T06:42:44.760Z,16.48
2022-12-16T06:48:01.781Z,23.60
2022-12-16T06:53:16.751Z,25.75
2022-12-16T06:58:31.529Z,21.73
2022-12-16T07:03:46.981Z,20.00
2022-12-16T07:09:01.729Z,20.17
2022-12-16T07:14:20.473Z,25.90
2022-12-16T07:19:36.156Z,20.27
2022-12-16T07:24:50.835Z,20.48
2022-12-16T07:30:05.797Z,23.58
2022-12-16T07:35:21.619Z,22.08
2022-12-16T07:40:36.911Z,23.42
2022-12-16T07:45:55.148Z,20.83
2022-12-16T07:51:16.505Z,21.90
2022-12-16T07:56:34.514Z,21.50
2022-12-16T08:01:49.876Z,23.17
2022-12-16T08:07:11.015Z,23.95
2022-12-16T08:12:25.970Z,20.52
2022-12-16T08:17:43.152Z,19.85
2022-12-16T08:23:01.159Z,23.15
2022-12-16T08:28:16.416Z,26.88
2022-12-16T08:33:32.257Z,17.07
2022-12-16T08:38:50.510Z,19.85
2022-12-16T08:44:08.595Z,20.00
2022-12-16T08:49:24.242Z,21.88
2022-12-16T08:59:54.743Z,22.05
2022-12-16T09:05:09.582Z,20.92
2022-12-16T09:10:26.005Z,18.73
2022-12-16T09:15:40.969Z,16.58
2022-12-16T09:20:55.805Z,17.85
2022-12-16T09:26:16.652Z,19.95
2022-12-16T09:31:31.560Z,20.80
2022-12-16T09:36:46.942Z,23.20
2022-12-16T09:42:09.020Z,21.40
2022-12-16T09:47:36.161Z,20.92
2022-12-16T09:52:57.435Z,20.13
2022-12-16T09:58:12.991Z,21.92
2022-12-16T10:03:51.549Z,22.80
2022-12-16T10:09:16.539Z,25.23
2022-12-16T10:14:37.731Z,24.95
2022-12-16T10:20:09.096Z,24.52
2022-12-16T10:25:31.373Z,24.23
2022-12-16T10:30:48.312Z,21.00
2022-12-16T10:36:10.734Z,20.63
2022-12-16T10:41:38.729Z,25.73
2022-12-16T10:46:55.000Z,28.23
2022-12-16T10:52:10.589Z,30.15
2022-12-16T10:57:32.077Z,32.63
2022-12-16T11:02:54.718Z,28.75
2022-12-16T11:08:10.388Z,31.40
2022-12-16T11:13:34.834Z,34.65
2022-12-16T11:18:50.774Z,37.17
2022-12-16T11:29:28.142Z,39.20
2022-12-16T11:34:45.067Z,37.35
2022-12-16T11:40:00.179Z,32.90
2022-12-16T11:45:19.137Z,32.23
2022-12-16T11:50:41.053Z,28.85
2022-12-16T11:56:12.734Z,26.70
2022-12-16T12:01:41.505Z,25.15
2022-12-16T12:07:17.222Z,23.90
2022-12-16T12:12:41.727Z,24.42
2022-12-16T12:18:05.610Z,24.58
2022-12-16T12:23:25.988Z,20.40
2022-12-16T12:28:51.020Z,21.60
2022-12-16T12:34:15.833Z,25.40
2022-12-16T12:39:38.632Z,26.30
2022-12-16T12:45:13.609Z,25.65
2022-12-16T12:50:35.105Z,24.23
2022-12-16T12:56:00.134Z,24.52
2022-12-16T13:01:28.543Z,23.63
2022-12-16T13:06:44.399Z,21.80
2022-12-16T13:12:47.441Z,22.02
2022-12-16T13:18:31.040Z,22.75
2022-12-16T13:23:49.637Z,18.48
2022-12-16T13:29:26.363Z,16.73
2022-12-16T13:34:58.659Z,17.60
2022-12-16T13:40:24.587Z,18.75
2022-12-16T13:45:59.796Z,24.88
2022-12-16T13:51:19.041Z,21.15
2022-12-16T13:56:41.635Z,23.42
2022-12-16T14:02:11.994Z,24.35
2022-12-16T14:07:27.084Z,25.58
2022-12-16T14:13:04.868Z,27.67
2022-12-16T14:18:30.504Z,27.13
2022-12-16T14:23:57.339Z,23.88
2022-12-16T14:29:14.021Z,32.35
2022-12-16T14:34:35.754Z,35.13
2022-12-16T14:39:56.814Z,32.72
2022-12-16T14:45:11.380Z,32.72
2022-12-16T14:50:39.411Z,34.47
2022-12-16T14:55:54.350Z,32.17
2022-12-16T15:01:15.818Z,28.13
2022-12-16T15:06:40.502Z,32.28
2022-12-16T15:11:56.879Z,28.40
2022-12-16T15:17:37.597Z,31.17
2022-12-16T15:22:58.016Z,24.73
2022-12-16T15:28:16.029Z,26.67
2022-12-16T15:33:36.146Z,26.58
2022-12-16T15:38:54.171Z,29.77
2022-12-16T15:44:11.048Z,24.42
2022-12-16T15:49:36.597Z,24.80
2022-12-16T15:55:12.318Z,23.77
2022-12-16T16:00:38.880Z,24.47
2022-12-16T16:05:54.598Z,24.20
2022-12-16T16:11:07.782Z,20.75
2022-12-16T16:16:28.881Z,21.77
2022-12-16T16:21:45.265Z,21.13
2022-12-16T16:27:00.795Z,23.77
2022-12-16T16:32:16.148Z,21.27
2022-12-16T16:37:37.113Z,22.80
2022-12-16T16:42:55.465Z,21.17
2022-12-16T16:48:19.768Z,20.73
2022-12-16T16:53:35.414Z,21.02
2022-12-16T16:58:55.395Z,24.75
2022-12-16T17:04:10.549Z,22.88
2022-12-16T17:09:22.036Z,23.33
2022-12-16T17:14:38.785Z,21.77
2022-12-16T17:19:57.354Z,22.13
2022-12-16T17:25:12.670Z,22.38
2022-12-16T17:30:33.503Z,25.83
2022-12-16T17:35:51.578Z,29.00
2022-12-16T17:41:09.900Z,30.35
2022-12-16T17:46:29.033Z,30.52
2022-12-16T17:51:44.282Z,32.47
2022-12-16T17:57:02.692Z,28.13
2022-12-16T18:02:18.446Z,28.42
2022-12-16T18:07:36.674Z,26.98
2022-12-16T18:12:57.984Z,26.88
2022-12-16T18:18:19.099Z,30.58
2022-12-16T18:23:35.310Z,33.65
2022-12-16T18:28:51.277Z,30.40
2022-12-16T18:34:07.016Z,30.52
2022-12-16T18:39:22.726Z,21.98
2022-12-16T18:44:37.454Z,18.10
2022-12-16T18:49:53.329Z,19.17
2022-12-16T18:55:08.384Z,21.33
2022-12-16T19:00:26.942Z,21.85
2022-12-16T19:05:45.695Z,21.63
2022-12-16T19:11:00.617Z,29.13
2022-12-16T19:16:17.039Z,22.33
2022-12-16T19:21:41.175Z,26.52
2022-12-16T19:32:31.324Z,24.27
2022-12-16T19:37:47.028Z,24.65
2022-12-16T19:43:17.050Z,23.98
2022-12-16T19:48:28.656Z,22.83
2022-12-16T19:53:44.581Z,24.17
2022-12-16T19:58:59.712Z,21.95
2022-12-16T20:04:20.597Z,18.73
2022-12-16T20:09:51.687Z,19.38
2022-12-16T20:15:06.719Z,20.67
2022-12-16T20:20:22.429Z,20.58
2022-12-16T20:25:38.321Z,22.30
2022-12-16T20:36:15.290Z,25.95
2022-12-16T20:41:31.160Z,27.52
2022-12-16T20:46:47.019Z,28.65
2022-12-16T20:52:02.035Z,30.83
2022-12-16T20:57:19.563Z,28.95
2022-12-16T21:02:34.586Z,28.33
2022-12-16T21:07:53.553Z,23.23
2022-12-16T21:13:09.230Z,27.67
2022-12-16T21:18:27.681Z,29.23
2022-12-16T21:23:42.988Z,30.80
2022-12-16T21:28:58.821Z,25.30
2022-12-16T21:34:13.443Z,27.13
2022-12-16T21:39:28.233Z,26.08
2022-12-16T21:44:43.933Z,27.52
2022-12-16T21:49:58.454Z,24.42
2022-12-16T21:55:13.385Z,27.92
2022-12-16T22:00:30.906Z,30.02
2022-12-16T22:05:46.239Z,28.20
2022-12-16T22:11:01.040Z,25.50
2022-12-16T22:16:17.706Z,24.48
2022-12-16T22:21:32.684Z,18.67
2022-12-16T22:26:47.589Z,12.63
2022-12-16T22:32:03.535Z,11.57
2022-12-16T22:37:18.671Z,10.25
2022-12-16T22:42:33.715Z,10.00
2022-12-16T22:47:50.042Z,12.85
2022-12-16T22:53:04.702Z,14.02
2022-12-16T22:58:24.041Z,22.48
2022-12-16T23:03:40.122Z,21.08
2022-12-16T23:08:55.197Z,27.17
2022-12-16T23:14:12.047Z,25.90
2022-12-16T23:19:27.791Z,31.13
2022-12-16T23:24:42.907Z,28.15
2022-12-16T23:29:58.215Z,29.67
2022-12-16T23:35:13.969Z,29.10
2022-12-16T23:40:29.476Z,28.10
2022-12-16T23:45:44.617Z,26.63
2022-12-16T23:51:15.621Z,25.45
2022-12-16T23:56:30.397Z,24.13
